sensor_id;sensor_type;location;lat;lon;timestamp;pressure;altitude;pressure_sealevel;temperature;humidity
47374;BME280;33123;50.118;10.272;2022-09-09T00:00:18;97299.03;;;14.66;71.05
47374;BME280;33123;50.118;10.272;2022-09-09T00:02:52;97298.22;;;14.65;70.84
47374;BME280;33123;50.118;10.272;2022-09-09T00:05:29;97289.75;;;14.63;70.52
47374;BME280;33123;50.118;10.272;2022-09-09T00:07:58;97286.88;;;14.60;70.72
47374;BME280;33123;50.118;10.272;2022-09-09T00:10:48;97288.75;;;14.59;71.11
47374;BME280;33123;50.118;10.272;2022-09-09T00:13:21;97288.75;;;14.59;71.16
47374;BME280;33123;50.118;10.272;2022-09-09T00:15:55;97300.66;;;14.62;71.36
47374;BME280;33123;50.118;10.272;2022-09-09T00:18:28;97298.22;;;14.65;71.33
47374;BME280;33123;50.118;10.272;2022-09-09T00:21:04;97292.38;;;14.68;71.54
47374;BME280;33123;50.118;10.272;2022-09-09T00:23:34;97292.59;;;14.72;71.50
47374;BME280;33123;50.118;10.272;2022-09-09T00:26:08;97295.47;;;14.75;71.29
47374;BME280;33123;50.118;10.272;2022-09-09T00:28:41;97291.47;;;14.78;71.00
47374;BME280;33123;50.118;10.272;2022-09-09T00:31:14;97296.00;;;14.77;70.81
47374;BME280;33123;50.118;10.272;2022-09-09T00:33:46;97296.00;;;14.77;70.60
47374;BME280;33123;50.118;10.272;2022-09-09T00:36:14;97290.94;;;14.76;70.50
47374;BME280;33123;50.118;10.272;2022-09-09T00:38:45;97292.03;;;14.75;70.64
47374;BME280;33123;50.118;10.272;2022-09-09T00:41:19;97259.63;;;14.54;70.68
47374;BME280;33123;50.118;10.272;2022-09-09T00:43:55;97288.28;;;14.76;71.38
47374;BME280;33123;50.118;10.272;2022-09-09T00:46:38;97291.47;;;14.78;71.15
47374;BME280;33123;50.118;10.272;2022-09-09T00:49:17;97287.44;;;14.81;71.39
47374;BME280;33123;50.118;10.272;2022-09-09T00:51:50;97289.81;;;14.82;71.68
47374;BME280;33123;50.118;10.272;2022-09-09T00:54:37;97288.19;;;14.86;71.40
47374;BME280;33123;50.118;10.272;2022-09-09T00:57:19;97290.00;;;14.91;71.16
47374;BME280;33123;50.118;10.272;2022-09-09T00:59:52;97283.59;;;14.92;71.17
47374;BME280;33123;50.118;10.272;2022-09-09T01:02:26;97287.84;;;14.93;71.18
47374;BME280;33123;50.118;10.272;2022-09-09T01:05:02;97273.72;;;14.97;71.19
47374;BME280;33123;50.118;10.272;2022-09-09T01:07:31;97278.25;;;14.97;71.22
47374;BME280;33123;50.118;10.272;2022-09-09T01:10:00;97280.34;;;15.00;71.38
47374;BME280;33123;50.118;10.272;2022-09-09T01:12:35;97280.03;;;15.01;71.64
47374;BME280;33123;50.118;10.272;2022-09-09T01:15:09;97285.34;;;15.01;71.27
47374;BME280;33123;50.118;10.272;2022-09-09T01:17:46;97291.44;;;15.02;71.24
47374;BME280;33123;50.118;10.272;2022-09-09T01:20:21;97283.00;;;15.00;71.29
47374;BME280;33123;50.118;10.272;2022-09-09T01:23:04;97281.97;;;14.96;71.80
47374;BME280;33123;50.118;10.272;2022-09-09T01:26:13;97288.56;;;14.98;71.78
47374;BME280;33123;50.118;10.272;2022-09-09T01:28:43;97280.91;;;14.97;72.40
47374;BME280;33123;50.118;10.272;2022-09-09T01:31:15;97271.59;;;14.99;72.07
47374;BME280;33123;50.118;10.272;2022-09-09T01:33:43;97273.94;;;15.01;71.93
47374;BME280;33123;50.118;10.272;2022-09-09T01:36:14;97262.75;;;15.04;72.21
47374;BME280;33123;50.118;10.272;2022-09-09T01:38:44;97272.81;;;15.07;72.06
47374;BME280;33123;50.118;10.272;2022-09-09T01:41:12;97274.88;;;15.10;71.91
47374;BME280;33123;50.118;10.272;2022-09-09T01:43:38;97282.00;;;15.15;71.98
47374;BME280;33123;50.118;10.272;2022-09-09T01:46:05;97279.00;;;15.21;72.06
47374;BME280;33123;50.118;10.272;2022-09-09T01:48:33;97280.78;;;15.26;71.64
47374;BME280;33123;50.118;10.272;2022-09-09T01:50:59;97275.69;;;15.29;71.57
47374;BME280;33123;50.118;10.272;2022-09-09T01:53:26;97275.16;;;15.32;71.39
47374;BME280;33123;50.118;10.272;2022-09-09T01:56:01;97270.31;;;15.35;71.21
47374;BME280;33123;50.118;10.272;2022-09-09T01:58:37;97269.25;;;15.36;71.42
47374;BME280;33123;50.118;10.272;2022-09-09T02:01:15;97269.75;;;15.38;70.93
47374;BME280;33123;50.118;10.272;2022-09-09T02:03:48;97256.03;;;15.30;71.15
47374;BME280;33123;50.118;10.272;2022-09-09T02:06:26;97273.22;;;15.38;70.91
47374;BME280;33123;50.118;10.272;2022-09-09T02:08:56;97274.06;;;15.34;71.37
47374;BME280;33123;50.118;10.272;2022-09-09T02:11:26;97280.59;;;15.41;71.32
47374;BME280;33123;50.118;10.272;2022-09-09T02:13:57;97285.03;;;15.46;71.32
47374;BME280;33123;50.118;10.272;2022-09-09T02:16:28;97277.00;;;15.51;70.97
47374;BME280;33123;50.118;10.272;2022-09-09T02:19:01;97284.91;;;15.56;70.89
47374;BME280;33123;50.118;10.272;2022-09-09T02:21:30;97283.53;;;15.58;70.56
47374;BME280;33123;50.118;10.272;2022-09-09T02:23:59;97238.03;;;15.27;70.73
47374;BME280;33123;50.118;10.272;2022-09-09T02:26:31;97284.84;;;15.61;70.53
47374;BME280;33123;50.118;10.272;2022-09-09T02:29:03;97292.16;;;15.69;70.38
47374;BME280;33123;50.118;10.272;2022-09-09T02:31:31;97295.97;;;15.63;70.59
47374;BME280;33123;50.118;10.272;2022-09-09T02:34:01;97300.66;;;15.71;70.59
47374;BME280;33123;50.118;10.272;2022-09-09T02:36:32;97295.25;;;15.76;70.65
47374;BME280;33123;50.118;10.272;2022-09-09T02:39:00;97291.59;;;15.72;70.94
47374;BME280;33123;50.118;10.272;2022-09-09T02:41:31;97284.03;;;15.79;70.41
47374;BME280;33123;50.118;10.272;2022-09-09T02:43:59;97290.44;;;15.78;70.59
47374;BME280;33123;50.118;10.272;2022-09-09T02:46:39;97278.94;;;15.83;70.34
47374;BME280;33123;50.118;10.272;2022-09-09T02:49:13;97282.09;;;15.85;70.61
47374;BME280;33123;50.118;10.272;2022-09-09T02:51:48;97273.81;;;15.87;70.50
47374;BME280;33123;50.118;10.272;2022-09-09T02:54:24;97274.63;;;15.87;70.47
47374;BME280;33123;50.118;10.272;2022-09-09T02:56:53;97271.38;;;15.90;70.53
47374;BME280;33123;50.118;10.272;2022-09-09T02:59:22;97278.28;;;15.91;69.97
47374;BME280;33123;50.118;10.272;2022-09-09T03:01:50;97277.41;;;15.96;70.04
47374;BME280;33123;50.118;10.272;2022-09-09T03:04:18;97274.47;;;15.97;70.00
47374;BME280;33123;50.118;10.272;2022-09-09T03:06:45;97286.09;;;16.01;69.83
47374;BME280;33123;50.118;10.272;2022-09-09T03:09:12;97288.44;;;16.03;70.06
47374;BME280;33123;50.118;10.272;2022-09-09T03:11:38;97281.78;;;16.05;70.11
47374;BME280;33123;50.118;10.272;2022-09-09T03:14:05;97287.88;;;16.06;69.92
47374;BME280;33123;50.118;10.272;2022-09-09T03:16:32;97281.78;;;16.05;69.87
47374;BME280;33123;50.118;10.272;2022-09-09T03:19:00;97277.44;;;16.09;70.18
47374;BME280;33123;50.118;10.272;2022-09-09T03:21:27;97280.63;;;16.12;70.26
47374;BME280;33123;50.118;10.272;2022-09-09T03:23:54;97280.81;;;16.15;70.21
47374;BME280;33123;50.118;10.272;2022-09-09T03:26:20;97281.81;;;16.19;70.28
47374;BME280;33123;50.118;10.272;2022-09-09T03:28:48;97283.09;;;16.22;70.50
47374;BME280;33123;50.118;10.272;2022-09-09T03:31:16;97274.81;;;16.23;69.86
47374;BME280;33123;50.118;10.272;2022-09-09T03:33:44;97268.91;;;16.26;70.42
47374;BME280;33123;50.118;10.272;2022-09-09T03:36:12;97274.75;;;16.28;70.11
47374;BME280;33123;50.118;10.272;2022-09-09T03:38:39;97266.75;;;16.28;70.30
47374;BME280;33123;50.118;10.272;2022-09-09T03:41:06;97270.22;;;16.29;70.29
47374;BME280;33123;50.118;10.272;2022-09-09T03:43:33;97266.75;;;16.28;70.43
47374;BME280;33123;50.118;10.272;2022-09-09T03:46:00;97265.69;;;16.29;70.58
47374;BME280;33123;50.118;10.272;2022-09-09T03:48:27;97265.19;;;16.27;70.31
47374;BME280;33123;50.118;10.272;2022-09-09T03:50:54;97260.75;;;16.23;70.24
47374;BME280;33123;50.118;10.272;2022-09-09T03:53:24;97274.94;;;16.32;70.13
47374;BME280;33123;50.118;10.272;2022-09-09T03:55:53;97268.81;;;16.31;70.32
47374;BME280;33123;50.118;10.272;2022-09-09T03:58:21;97267.25;;;16.30;70.46
47374;BME280;33123;50.118;10.272;2022-09-09T04:01:00;97263.50;;;16.31;70.47
47374;BME280;33123;50.118;10.272;2022-09-09T04:03:27;97238.25;;;16.15;70.55
47374;BME280;33123;50.118;10.272;2022-09-09T04:05:55;97262.53;;;16.27;70.48
47374;BME280;33123;50.118;10.272;2022-09-09T04:08:25;97256.44;;;16.27;70.68
47374;BME280;33123;50.118;10.272;2022-09-09T04:10:53;97257.78;;;16.24;70.61
47374;BME280;33123;50.118;10.272;2022-09-09T04:13:22;97261.53;;;16.23;70.20
47374;BME280;33123;50.118;10.272;2022-09-09T04:15:50;97261.84;;;16.22;70.07
47374;BME280;33123;50.118;10.272;2022-09-09T04:18:17;97255.22;;;16.19;70.24
47374;BME280;33123;50.118;10.272;2022-09-09T04:20:46;97259.75;;;16.19;70.29
47374;BME280;33123;50.118;10.272;2022-09-09T04:23:12;97262.72;;;16.17;70.27
47374;BME280;33123;50.118;10.272;2022-09-09T04:25:44;97260.53;;;16.19;70.18
47374;BME280;33123;50.118;10.272;2022-09-09T04:28:11;97252.94;;;16.13;70.17
47374;BME280;33123;50.118;10.272;2022-09-09T04:30:38;97260.53;;;16.19;70.27
47374;BME280;33123;50.118;10.272;2022-09-09T04:33:05;97269.28;;;16.20;70.37
47374;BME280;33123;50.118;10.272;2022-09-09T04:35:32;97273.81;;;16.19;70.41
47374;BME280;33123;50.118;10.272;2022-09-09T04:37:58;97264.28;;;16.18;70.42
47374;BME280;33123;50.118;10.272;2022-09-09T04:40:25;97264.69;;;16.25;70.18
47374;BME280;33123;50.118;10.272;2022-09-09T04:42:53;97258.38;;;16.21;70.15
47374;BME280;33123;50.118;10.272;2022-09-09T04:45:19;97263.41;;;16.23;70.34
47374;BME280;33123;50.118;10.272;2022-09-09T04:47:46;97265.75;;;16.24;70.47
47374;BME280;33123;50.118;10.272;2022-09-09T04:50:12;97269.50;;;16.23;70.59
47374;BME280;33123;50.118;10.272;2022-09-09T04:52:39;97261.53;;;16.23;70.59
47374;BME280;33123;50.118;10.272;2022-09-09T04:55:07;97260.75;;;16.23;70.80
47374;BME280;33123;50.118;10.272;2022-09-09T04:57:34;97270.59;;;16.22;70.86
47374;BME280;33123;50.118;10.272;2022-09-09T05:00:04;97265.28;;;16.22;71.13
47374;BME280;33123;50.118;10.272;2022-09-09T05:02:31;97270.59;;;16.22;71.06
47374;BME280;33123;50.118;10.272;2022-09-09T05:04:57;97274.81;;;16.23;71.07
47374;BME280;33123;50.118;10.272;2022-09-09T05:07:26;97272.16;;;16.23;71.12
47374;BME280;33123;50.118;10.272;2022-09-09T05:09:54;97276.69;;;16.23;70.93
47374;BME280;33123;50.118;10.272;2022-09-09T05:12:20;97271.09;;;16.24;71.04
47374;BME280;33123;50.118;10.272;2022-09-09T05:14:49;97273.25;;;16.22;71.04
47374;BME280;33123;50.118;10.272;2022-09-09T05:17:29;97277.97;;;16.25;70.79
47374;BME280;33123;50.118;10.272;2022-09-09T05:19:55;97273.75;;;16.24;70.63
47374;BME280;33123;50.118;10.272;2022-09-09T05:22:22;97271.09;;;16.24;70.59
47374;BME280;33123;50.118;10.272;2022-09-09T05:24:49;97272.97;;;16.24;70.78
47374;BME280;33123;50.118;10.272;2022-09-09T05:27:16;97285.47;;;16.23;70.78
47374;BME280;33123;50.118;10.272;2022-09-09T05:29:44;97282.59;;;16.20;70.33
47374;BME280;33123;50.118;10.272;2022-09-09T05:32:11;97283.38;;;16.20;70.79
47374;BME280;33123;50.118;10.272;2022-09-09T05:34:40;97291.28;;;16.25;70.35
47374;BME280;33123;50.118;10.272;2022-09-09T05:37:06;97284.38;;;16.24;70.47
47374;BME280;33123;50.118;10.272;2022-09-09T05:39:33;97285.94;;;16.25;70.60
47374;BME280;33123;50.118;10.272;2022-09-09T05:42:01;97286.00;;;16.53;69.40
47374;BME280;33123;50.118;10.272;2022-09-09T05:44:30;97288.22;;;16.78;68.24
47374;BME280;33123;50.118;10.272;2022-09-09T05:46:56;97285.44;;;16.97;67.43
47374;BME280;33123;50.118;10.272;2022-09-09T05:49:23;97287.03;;;17.12;66.75
47374;BME280;33123;50.118;10.272;2022-09-09T05:51:51;97293.31;;;17.30;66.42
47374;BME280;33123;50.118;10.272;2022-09-09T05:54:18;97302.69;;;17.63;65.33
47374;BME280;33123;50.118;10.272;2022-09-09T05:56:45;97307.66;;;18.15;63.96
47374;BME280;33123;50.118;10.272;2022-09-09T05:59:12;97308.97;;;18.80;61.65
47374;BME280;33123;50.118;10.272;2022-09-09T06:01:40;97312.75;;;19.53;59.36
47374;BME280;33123;50.118;10.272;2022-09-09T06:04:07;97312.28;;;20.29;56.44
47374;BME280;33123;50.118;10.272;2022-09-09T06:06:35;97313.66;;;20.99;54.34
47374;BME280;33123;50.118;10.272;2022-09-09T06:09:06;97319.44;;;21.40;52.63
47374;BME280;33123;50.118;10.272;2022-09-09T06:11:35;97310.38;;;21.74;51.94
47374;BME280;33123;50.118;10.272;2022-09-09T06:14:03;97326.78;;;22.14;50.70
47374;BME280;33123;50.118;10.272;2022-09-09T06:16:31;97318.91;;;22.09;50.22
47374;BME280;33123;50.118;10.272;2022-09-09T06:18:59;97319.22;;;22.07;49.67
47374;BME280;33123;50.118;10.272;2022-09-09T06:21:27;97328.59;;;22.67;48.73
47374;BME280;33123;50.118;10.272;2022-09-09T06:23:55;97323.44;;;22.50;48.56
47374;BME280;33123;50.118;10.272;2022-09-09T06:26:24;97324.34;;;22.54;48.61
47374;BME280;33123;50.118;10.272;2022-09-09T06:28:52;97321.81;;;22.82;48.00
47374;BME280;33123;50.118;10.272;2022-09-09T06:31:21;97292.59;;;23.17;47.35
47374;BME280;33123;50.118;10.272;2022-09-09T06:33:49;97318.91;;;23.89;46.01
47374;BME280;33123;50.118;10.272;2022-09-09T06:36:17;97301.63;;;24.46;44.88
47374;BME280;33123;50.118;10.272;2022-09-09T06:38:45;97322.16;;;24.82;43.44
47374;BME280;33123;50.118;10.272;2022-09-09T06:41:14;97316.31;;;25.27;42.57
47374;BME280;33123;50.118;10.272;2022-09-09T06:43:43;97310.94;;;25.27;42.29
47374;BME280;33123;50.118;10.272;2022-09-09T06:46:12;97327.28;;;25.03;43.05
47374;BME280;33123;50.118;10.272;2022-09-09T06:48:40;97318.63;;;24.06;44.44
47374;BME280;33123;50.118;10.272;2022-09-09T06:51:09;97320.97;;;23.80;45.38
47374;BME280;33123;50.118;10.272;2022-09-09T06:53:38;97321.28;;;23.01;47.17
47374;BME280;33123;50.118;10.272;2022-09-09T06:56:19;97334.03;;;22.47;48.78
47374;BME280;33123;50.118;10.272;2022-09-09T06:58:50;97274.78;;;21.44;50.82
47374;BME280;33123;50.118;10.272;2022-09-09T07:01:19;97333.69;;;21.23;52.61
47374;BME280;33123;50.118;10.272;2022-09-09T07:03:48;97327.41;;;20.89;53.76
47374;BME280;33123;50.118;10.272;2022-09-09T07:06:17;97329.72;;;20.61;54.80
47374;BME280;33123;50.118;10.272;2022-09-09T07:08:48;97332.25;;;20.40;55.35
47374;BME280;33123;50.118;10.272;2022-09-09T07:11:17;97326.00;;;20.19;56.54
47374;BME280;33123;50.118;10.272;2022-09-09T07:13:45;97323.00;;;20.12;56.29
47374;BME280;33123;50.118;10.272;2022-09-09T07:16:15;97322.38;;;19.97;56.84
47374;BME280;33123;50.118;10.272;2022-09-09T07:18:43;97327.09;;;19.74;57.74
47374;BME280;33123;50.118;10.272;2022-09-09T07:21:12;97336.03;;;19.52;58.98
47374;BME280;33123;50.118;10.272;2022-09-09T07:23:40;97334.78;;;19.59;57.64
47374;BME280;33123;50.118;10.272;2022-09-09T07:26:08;97334.28;;;19.39;58.11
47374;BME280;33123;50.118;10.272;2022-09-09T07:28:36;97337.09;;;19.34;58.50
47374;BME280;33123;50.118;10.272;2022-09-09T07:31:04;97342.41;;;19.17;58.95
47374;BME280;33123;50.118;10.272;2022-09-09T07:33:34;97338.66;;;19.35;58.76
47374;BME280;33123;50.118;10.272;2022-09-09T07:36:04;97348.50;;;19.74;57.17
47374;BME280;33123;50.118;10.272;2022-09-09T07:38:32;97348.34;;;19.97;56.46
47374;BME280;33123;50.118;10.272;2022-09-09T07:41:09;97336.84;;;20.22;55.24
47374;BME280;33123;50.118;10.272;2022-09-09T07:43:37;97344.56;;;19.81;56.19
47374;BME280;33123;50.118;10.272;2022-09-09T07:46:05;97349.78;;;19.94;56.38
47374;BME280;33123;50.118;10.272;2022-09-09T07:48:33;97346.47;;;19.89;56.14
47374;BME280;33123;50.118;10.272;2022-09-09T07:51:06;97351.47;;;19.82;56.29
47374;BME280;33123;50.118;10.272;2022-09-09T07:53:33;97318.25;;;19.57;56.73
47374;BME280;33123;50.118;10.272;2022-09-09T07:56:06;97354.03;;;19.78;56.86
47374;BME280;33123;50.118;10.272;2022-09-09T07:58:34;97351.34;;;19.87;56.96
47374;BME280;33123;50.118;10.272;2022-09-09T08:01:06;97350.25;;;19.88;56.93
47374;BME280;33123;50.118;10.272;2022-09-09T08:03:36;97359.84;;;19.97;56.13
47374;BME280;33123;50.118;10.272;2022-09-09T08:06:04;97370.88;;;20.04;56.86
47374;BME280;33123;50.118;10.272;2022-09-09T08:08:32;97364.88;;;19.90;56.28
47374;BME280;33123;50.118;10.272;2022-09-09T08:11:04;97361.06;;;20.26;56.04
47374;BME280;33123;50.118;10.272;2022-09-09T08:13:33;97364.19;;;20.63;54.90
47374;BME280;33123;50.118;10.272;2022-09-09T08:16:09;97361.78;;;20.78;54.51
47374;BME280;33123;50.118;10.272;2022-09-09T08:18:39;97369.31;;;20.94;53.70
47374;BME280;33123;50.118;10.272;2022-09-09T08:21:08;97358.81;;;21.09;53.70
47374;BME280;33123;50.118;10.272;2022-09-09T08:23:38;97363.78;;;20.90;53.79
47374;BME280;33123;50.118;10.272;2022-09-09T08:26:06;97362.69;;;21.21;53.63
47374;BME280;33123;50.118;10.272;2022-09-09T08:28:34;97363.00;;;21.28;53.48
47374;BME280;33123;50.118;10.272;2022-09-09T08:31:10;97367.00;;;21.51;53.07
47374;BME280;33123;50.118;10.272;2022-09-09T08:33:39;97361.53;;;21.90;52.20
47374;BME280;33123;50.118;10.272;2022-09-09T08:36:08;97376.19;;;22.34;50.59
47374;BME280;33123;50.118;10.272;2022-09-09T08:38:36;97371.38;;;22.73;49.79
47374;BME280;33123;50.118;10.272;2022-09-09T08:41:33;97382.22;;;23.22;48.82
47374;BME280;33123;50.118;10.272;2022-09-09T08:44:07;97381.09;;;23.23;48.38
47374;BME280;33123;50.118;10.272;2022-09-09T08:46:38;97379.97;;;22.99;49.23
47374;BME280;33123;50.118;10.272;2022-09-09T08:49:22;97374.59;;;22.99;49.45
47374;BME280;33123;50.118;10.272;2022-09-09T08:51:55;97379.50;;;22.97;50.00
47374;BME280;33123;50.118;10.272;2022-09-09T08:54:23;97384.09;;;22.63;50.10
47374;BME280;33123;50.118;10.272;2022-09-09T08:56:52;97386.59;;;22.81;50.06
47374;BME280;33123;50.118;10.272;2022-09-09T08:59:19;97381.84;;;22.53;50.49
47374;BME280;33123;50.118;10.272;2022-09-09T09:02:00;97380.81;;;22.46;50.83
47374;BME280;33123;50.118;10.272;2022-09-09T09:04:41;97376.19;;;22.34;50.63
47374;BME280;33123;50.118;10.272;2022-09-09T09:07:21;97382.50;;;22.50;51.38
47374;BME280;33123;50.118;10.272;2022-09-09T09:09:57;97383.91;;;22.81;50.97
47374;BME280;33123;50.118;10.272;2022-09-09T09:12:27;97378.06;;;23.00;49.93
47374;BME280;33123;50.118;10.272;2022-09-09T09:14:56;97380.88;;;23.28;49.17
47374;BME280;33123;50.118;10.272;2022-09-09T09:17:28;97385.13;;;23.29;49.16
47374;BME280;33123;50.118;10.272;2022-09-09T09:19:58;97384.44;;;23.19;49.11
47374;BME280;33123;50.118;10.272;2022-09-09T09:22:32;97343.34;;;23.07;48.71
47374;BME280;33123;50.118;10.272;2022-09-09T09:25:08;97383.34;;;23.33;49.01
47374;BME280;33123;50.118;10.272;2022-09-09T09:27:41;97376.94;;;23.50;49.58
47374;BME280;33123;50.118;10.272;2022-09-09T09:30:15;97371.22;;;23.63;48.00
47374;BME280;33123;50.118;10.272;2022-09-09T09:32:56;97366.56;;;24.01;47.17
47374;BME280;33123;50.118;10.272;2022-09-09T09:35:26;97382.66;;;23.60;47.51
47374;BME280;33123;50.118;10.272;2022-09-09T09:37:54;97374.75;;;24.32;46.14
47374;BME280;33123;50.118;10.272;2022-09-09T09:40:22;97372.75;;;24.73;45.27
47374;BME280;33123;50.118;10.272;2022-09-09T09:42:51;97353.31;;;25.11;43.94
47374;BME280;33123;50.118;10.272;2022-09-09T09:45:28;97368.34;;;25.79;43.00
47374;BME280;33123;50.118;10.272;2022-09-09T09:48:00;97364.59;;;26.03;41.40
47374;BME280;33123;50.118;10.272;2022-09-09T09:50:31;97363.31;;;25.97;41.70
47374;BME280;33123;50.118;10.272;2022-09-09T09:53:01;97359.25;;;25.87;41.73
47374;BME280;33123;50.118;10.272;2022-09-09T09:55:31;97361.34;;;25.43;43.19
47374;BME280;33123;50.118;10.272;2022-09-09T09:58:03;97364.88;;;25.27;42.51
47374;BME280;33123;50.118;10.272;2022-09-09T10:00:31;97354.69;;;25.05;43.25
47374;BME280;33123;50.118;10.272;2022-09-09T10:03:00;97351.56;;;25.54;41.90
47374;BME280;33123;50.118;10.272;2022-09-09T10:05:31;97356.13;;;25.50;40.64
47374;BME280;33123;50.118;10.272;2022-09-09T10:08:04;97352.38;;;26.09;41.33
47374;BME280;33123;50.118;10.272;2022-09-09T10:10:42;97344.19;;;26.25;39.24
47374;BME280;33123;50.118;10.272;2022-09-09T10:13:17;97345.69;;;26.42;39.76
47374;BME280;33123;50.118;10.272;2022-09-09T10:15:57;97330.47;;;26.14;40.00
47374;BME280;33123;50.118;10.272;2022-09-09T10:18:42;97341.84;;;26.43;39.85
47374;BME280;33123;50.118;10.272;2022-09-09T10:21:22;97327.81;;;26.79;39.18
47374;BME280;33123;50.118;10.272;2022-09-09T10:24:08;97340.22;;;27.26;37.72
47374;BME280;33123;50.118;10.272;2022-09-09T10:26:49;97334.31;;;27.47;36.97
47374;BME280;33123;50.118;10.272;2022-09-09T10:29:32;97323.97;;;27.26;36.52
47374;BME280;33123;50.118;10.272;2022-09-09T10:32:13;97329.88;;;27.35;36.04
47374;BME280;33123;50.118;10.272;2022-09-09T10:34:55;97327.16;;;27.88;35.82
47374;BME280;33123;50.118;10.272;2022-09-09T10:37:43;97317.63;;;28.02;35.79
47374;BME280;33123;50.118;10.272;2022-09-09T10:40:26;97305.84;;;28.21;35.30
47374;BME280;33123;50.118;10.272;2022-09-09T10:43:02;97296.09;;;28.53;34.74
47374;BME280;33123;50.118;10.272;2022-09-09T10:45:41;97296.47;;;28.52;34.49
47374;BME280;33123;50.118;10.272;2022-09-09T10:48:23;97291.97;;;28.66;33.89
47374;BME280;33123;50.118;10.272;2022-09-09T10:51:06;97298.31;;;28.40;34.78
47374;BME280;33123;50.118;10.272;2022-09-09T10:53:46;97299.50;;;28.09;34.66
47374;BME280;33123;50.118;10.272;2022-09-09T10:56:18;97302.31;;;27.26;36.09
47374;BME280;33123;50.118;10.272;2022-09-09T10:58:52;97299.38;;;26.01;38.04
47374;BME280;33123;50.118;10.272;2022-09-09T11:01:22;97307.41;;;25.97;38.52
47374;BME280;33123;50.118;10.272;2022-09-09T11:03:55;97302.44;;;24.94;40.28
47374;BME280;33123;50.118;10.272;2022-09-09T11:06:29;97296.59;;;24.92;39.93
47374;BME280;33123;50.118;10.272;2022-09-09T11:09:00;97311.63;;;24.61;40.81
47374;BME280;33123;50.118;10.272;2022-09-09T11:11:33;97317.09;;;24.49;41.61
47374;BME280;33123;50.118;10.272;2022-09-09T11:14:08;97316.03;;;24.10;41.25
47374;BME280;33123;50.118;10.272;2022-09-09T11:16:40;97316.44;;;23.96;41.92
47374;BME280;33123;50.118;10.272;2022-09-09T11:19:14;97318.41;;;23.59;43.09
47374;BME280;33123;50.118;10.272;2022-09-09T11:21:46;97295.28;;;23.05;43.43
47374;BME280;33123;50.118;10.272;2022-09-09T11:24:19;97322.16;;;23.17;43.80
47374;BME280;33123;50.118;10.272;2022-09-09T11:26:53;97327.22;;;23.07;43.96
47374;BME280;33123;50.118;10.272;2022-09-09T11:32:31;97345.00;;;22.54;44.56
47374;BME280;33123;50.118;10.272;2022-09-09T11:35:12;97348.56;;;22.33;45.66
47374;BME280;33123;50.118;10.272;2022-09-09T11:37:55;97303.56;;;21.55;46.34
47374;BME280;33123;50.118;10.272;2022-09-09T11:40:28;97372.09;;;21.65;47.14
47374;BME280;33123;50.118;10.272;2022-09-09T11:43:02;97356.38;;;21.34;48.08
47374;BME280;33123;50.118;10.272;2022-09-09T11:45:31;97364.00;;;21.15;50.29
47374;BME280;33123;50.118;10.272;2022-09-09T11:48:02;97365.53;;;20.86;49.46
47374;BME280;33123;50.118;10.272;2022-09-09T11:50:32;97362.63;;;20.53;49.45
47374;BME280;33123;50.118;10.272;2022-09-09T11:53:14;97324.09;;;20.19;46.82
47374;BME280;33123;50.118;10.272;2022-09-09T11:55:46;97373.84;;;20.55;46.46
47374;BME280;33123;50.118;10.272;2022-09-09T11:58:17;97364.97;;;20.72;44.57
47374;BME280;33123;50.118;10.272;2022-09-09T12:00:47;97370.13;;;21.15;45.27
47374;BME280;33123;50.118;10.272;2022-09-09T12:03:34;97370.00;;;21.71;44.24
47374;BME280;33123;50.118;10.272;2022-09-09T12:06:10;97367.22;;;22.30;42.58
47374;BME280;33123;50.118;10.272;2022-09-09T12:08:41;97358.75;;;22.85;40.68
47374;BME280;33123;50.118;10.272;2022-09-09T12:11:11;97356.75;;;23.31;39.55
47374;BME280;33123;50.118;10.272;2022-09-09T12:13:38;97350.13;;;23.78;38.12
47374;BME280;33123;50.118;10.272;2022-09-09T12:16:28;97351.75;;;23.94;38.04
47374;BME280;33123;50.118;10.272;2022-09-09T12:19:03;97349.59;;;23.72;38.34
47374;BME280;33123;50.118;10.272;2022-09-09T12:21:34;97345.06;;;24.16;37.92
47374;BME280;33123;50.118;10.272;2022-09-09T12:24:07;97335.91;;;24.05;38.55
47374;BME280;33123;50.118;10.272;2022-09-09T12:26:40;97321.75;;;24.08;38.39
47374;BME280;33123;50.118;10.272;2022-09-09T12:29:18;97312.16;;;24.23;38.41
47374;BME280;33123;50.118;10.272;2022-09-09T12:31:53;97312.06;;;24.19;38.50
47374;BME280;33123;50.118;10.272;2022-09-09T12:34:32;97305.69;;;24.40;39.04
47374;BME280;33123;50.118;10.272;2022-09-09T12:37:04;97308.31;;;24.52;39.52
47374;BME280;33123;50.118;10.272;2022-09-09T12:39:34;97282.25;;;24.56;39.22
47374;BME280;33123;50.118;10.272;2022-09-09T12:42:03;97272.41;;;24.32;38.79
47374;BME280;33123;50.118;10.272;2022-09-09T12:44:30;97303.03;;;24.71;39.67
47374;BME280;33123;50.118;10.272;2022-09-09T12:47:00;97311.13;;;24.71;39.12
47374;BME280;33123;50.118;10.272;2022-09-09T12:49:31;97306.84;;;24.70;39.21
47374;BME280;33123;50.118;10.272;2022-09-09T12:52:02;97301.72;;;24.49;40.25
47374;BME280;33123;50.118;10.272;2022-09-09T12:54:31;97299.06;;;23.93;40.14
47374;BME280;33123;50.118;10.272;2022-09-09T12:56:57;97295.72;;;24.12;40.00
47374;BME280;33123;50.118;10.272;2022-09-09T12:59:27;97276.75;;;24.09;39.71
47374;BME280;33123;50.118;10.272;2022-09-09T13:02:01;97278.69;;;24.08;40.20
47374;BME280;33123;50.118;10.272;2022-09-09T13:04:27;97277.84;;;23.92;41.15
47374;BME280;33123;50.118;10.272;2022-09-09T13:07:05;97277.06;;;23.91;40.62
47374;BME280;33123;50.118;10.272;2022-09-09T13:09:32;97255.88;;;23.90;40.44
47374;BME280;33123;50.118;10.272;2022-09-09T13:11:58;97276.72;;;23.93;40.70
47374;BME280;33123;50.118;10.272;2022-09-09T13:14:29;97271.34;;;23.93;41.40